Time;durP1;ratioP1;P1;durP2;ratioP2;P2;SDS_P1;SDS_P2;PMS_P1;PMS_P2;Temp;Humidity;BMP_temperature;BMP_pressure;BME280_temperature;BME280_humidity;BME280_pressure;Samples;Min_cycle;Max_cycle;Signal;HPM_P1;HPM_P2
2021/09/07 07:02:34;;;;;;;20.92;17.17;;;;;;;;;;10520145;28;20157;-87
2021/09/07 07:07:45;;;;;;;13.73;11.82;;;;;;;;;;10543449;28;20103;-87
2021/09/07 07:12:46;;;;;;;15.70;13.02;;;;;;;;;;10560295;28;20035;-88
2021/09/07 07:17:47;;;;;;;13.80;12.10;;;;;;;;;;10532225;28;20020;-87
2021/09/07 07:22:48;;;;;;;13.70;10.95;;;;;;;;;;10530697;28;20393;-88
2021/09/07 07:27:49;;;;;;;15.18;12.05;;;;;;;;;;10530715;28;20362;-87
2021/09/07 07:32:50;;;;;;;17.65;11.60;;;;;;;;;;10533466;28;20024;-86
2021/09/07 07:37:51;;;;;;;16.92;13.30;;;;;;;;;;10526898;28;20024;-85
2021/09/07 07:42:52;;;;;;;16.05;13.27;;;;;;;;;;10528931;28;20028;-86
2021/09/07 07:47:53;;;;;;;15.80;12.43;;;;;;;;;;10527957;28;20123;-86
2021/09/07 07:53:02;;;;;;;17.05;13.05;;;;;;;;;;10529492;28;20032;-86
2021/09/07 07:58:03;;;;;;;18.63;14.02;;;;;;;;;;10536708;28;20072;-88
2021/09/07 08:03:09;;;;;;;18.95;14.35;;;;;;;;;;10536420;28;20051;-88
2021/09/07 08:08:16;;;;;;;17.30;14.55;;;;;;;;;;10547118;28;20488;-88
2021/09/07 08:13:51;;;;;;;;;;;;;;;;;;;;;
2021/09/07 08:19:21;;;;;;;14.70;12.77;;;;;;;;;;10476230;28;20041;-88
2021/09/07 08:24:33;;;;;;;20.03;14.17;;;;;;;;;;10517911;28;20443;-87
2021/09/07 08:29:38;;;;;;;21.83;15.57;;;;;;;;;;10510296;28;20432;-88
2021/09/07 08:34:39;;;;;;;16.85;13.07;;;;;;;;;;10502296;28;20036;-88
2021/09/07 08:39:40;;;;;;;14.52;12.52;;;;;;;;;;10500993;28;20123;-88
2021/09/07 08:44:47;;;;;;;15.10;12.10;;;;;;;;;;10497363;28;20020;-88
2021/09/07 08:49:52;;;;;;;16.13;11.98;;;;;;;;;;10501005;28;20044;-89
2021/09/07 08:55:08;;;;;;;20.90;12.85;;;;;;;;;;10500712;28;20074;-89
2021/09/07 09:00:23;;;;;;;16.55;12.38;;;;;;;;;;10502315;28;20051;-89
2021/09/07 09:05:28;;;;;;;14.75;12.07;;;;;;;;;;10518595;28;20039;-87
2021/09/07 09:10:38;;;;;;;14.50;12.38;;;;;;;;;;10541213;28;20044;-89
2021/09/07 09:16:07;;;;;;;18.63;15.13;;;;;;;;;;10509666;28;20031;-87
2021/09/07 09:21:22;;;;;;;46.78;41.80;;;;;;;;;;10502646;28;20120;-89
2021/09/07 09:26:23;;;;;;;23.48;18.70;;;;;;;;;;10506048;28;20051;-88
2021/09/07 09:31:24;;;;;;;18.67;14.95;;;;;;;;;;10501627;28;20029;-88
2021/09/07 09:36:29;;;;;;;15.10;13.45;;;;;;;;;;10499653;28;20075;-87
2021/09/07 09:41:48;;;;;;;16.38;13.98;;;;;;;;;;10501769;28;20027;-89
2021/09/07 09:46:56;;;;;;;16.25;13.15;;;;;;;;;;10502567;28;20391;-88
2021/09/07 09:52:12;;;;;;;17.92;13.43;;;;;;;;;;10504386;28;20493;-86
2021/09/07 09:57:13;;;;;;;16.85;13.25;;;;;;;;;;10498387;28;20051;-85
2021/09/07 10:02:21;;;;;;;15.32;12.65;;;;;;;;;;10509539;28;20078;-86
2021/09/07 10:07:22;;;;;;;16.65;12.30;;;;;;;;;;10513144;28;20029;-85
2021/09/07 10:12:40;;;;;;;15.45;12.20;;;;;;;;;;10509047;28;20064;-84
2021/09/07 10:17:50;;;;;;;15.73;11.95;;;;;;;;;;10501739;28;20564;-85
2021/09/07 10:28:22;;;;;;;16.20;12.27;;;;;;;;;;10499849;28;20033;-88
2021/09/07 10:33:41;;;;;;;14.55;10.60;;;;;;;;;;10503984;28;20032;-87
2021/09/07 10:39:02;;;;;;;12.43;10.97;;;;;;;;;;10470090;28;20033;-88
2021/09/07 10:44:05;;;;;;;13.50;10.90;;;;;;;;;;10513314;28;20029;-86
2021/09/07 10:49:22;;;;;;;13.90;9.75;;;;;;;;;;10508507;28;20095;-85
2021/09/07 10:54:41;;;;;;;13.77;11.32;;;;;;;;;;10507841;28;20495;-91
2021/09/07 10:59:54;;;;;;;13.27;11.07;;;;;;;;;;10508430;28;20098;-85
2021/09/07 11:04:55;;;;;;;11.25;9.27;;;;;;;;;;10508879;28;20366;-88
2021/09/07 11:09:56;;;;;;;14.52;10.18;;;;;;;;;;10536922;28;20035;-89
2021/09/07 11:15:23;;;;;;;13.82;10.57;;;;;;;;;;10509379;28;20032;-89
2021/09/07 11:20:27;;;;;;;13.13;9.57;;;;;;;;;;10525804;28;20347;-87
2021/09/07 11:25:28;;;;;;;14.02;9.27;;;;;;;;;;10531189;28;20020;-88
2021/09/07 11:30:33;;;;;;;13.18;10.60;;;;;;;;;;10548864;28;20027;-88
2021/09/07 11:35:39;;;;;;;18.50;14.48;;;;;;;;;;10538598;28;20020;-90
2021/09/07 11:40:47;;;;;;;12.90;10.55;;;;;;;;;;10530207;28;20063;-88
2021/09/07 11:45:48;;;;;;;15.50;12.27;;;;;;;;;;10531915;28;20485;-88
2021/09/07 11:50:50;;;;;;;14.60;12.00;;;;;;;;;;10534992;28;20123;-87
2021/09/07 11:55:52;;;;;;;14.10;11.65;;;;;;;;;;10536316;28;20077;-87
2021/09/07 12:00:59;;;;;;;14.65;10.55;;;;;;;;;;10537503;28;20020;-89
2021/09/07 12:06:00;;;;;;;13.35;9.90;;;;;;;;;;10538658;28;20110;-88
2021/09/07 12:11:01;;;;;;;14.40;11.98;;;;;;;;;;10531888;28;20047;-88
2021/09/07 12:16:04;;;;;;;12.13;10.30;;;;;;;;;;10526498;28;20039;-88
2021/09/07 12:21:12;;;;;;;14.25;10.75;;;;;;;;;;10529894;28;20119;-89
2021/09/07 12:26:32;;;;;;;14.32;11.70;;;;;;;;;;10535819;22;20036;-88
2021/09/07 13:11:46;;;;;;;12.40;10.43;;;;;;;;;;10509310;28;20082;-87
2021/09/07 13:39:42;;;;;;;10.73;9.30;;;;;;;;;;10412038;28;20029;-88
2021/09/07 13:45:13;;;;;;;12.15;10.32;;;;;;;;;;10396950;28;20037;-87
2021/09/07 14:18:41;;;;;;;11.13;9.30;;;;;;;;;;10433349;28;20033;-91
2021/09/07 14:24:22;;;;;;;9.65;7.93;;;;;;;;;;10351627;28;20030;-86
2021/09/07 14:52:46;;;;;;;9.23;8.20;;;;;;;;;;10325300;28;20092;-86
2021/09/07 14:57:56;;;;;;;11.35;9.18;;;;;;;;;;10389154;28;20046;-85
2021/09/07 15:08:51;;;;;;;10.63;7.25;;;;;;;;;;10444588;28;20131;-85
2021/09/07 15:14:08;;;;;;;13.55;7.18;;;;;;;;;;10501430;28;20048;-84
2021/09/07 15:19:24;;;;;;;12.13;7.38;;;;;;;;;;10521119;28;20036;-85
2021/09/07 15:41:34;;;;;;;7.68;6.88;;;;;;;;;;10519113;28;20021;-87
2021/09/07 15:46:35;;;;;;;8.88;7.65;;;;;;;;;;10513953;28;20048;-85
2021/09/07 15:51:36;;;;;;;7.60;6.80;;;;;;;;;;10514435;28;20025;-84
2021/09/07 15:56:37;;;;;;;8.15;7.20;;;;;;;;;;10511278;28;20453;-87
2021/09/07 16:01:37;;;;;;;11.32;8.50;;;;;;;;;;10509230;28;20069;-84
2021/09/07 16:06:38;;;;;;;12.05;10.20;;;;;;;;;;10513581;28;20428;-83
2021/09/07 16:11:39;;;;;;;9.05;6.65;;;;;;;;;;10514515;28;20021;-83
2021/09/07 16:16:40;;;;;;;9.25;7.53;;;;;;;;;;10517308;28;20404;-83
2021/09/07 16:21:42;;;;;;;9.10;8.20;;;;;;;;;;10513580;28;20024;-82
2021/09/07 16:26:46;;;;;;;9.20;7.38;;;;;;;;;;10512648;28;20155;-89
2021/09/07 16:31:47;;;;;;;10.10;7.25;;;;;;;;;;10508683;28;20025;-89
2021/09/07 16:36:50;;;;;;;10.38;7.85;;;;;;;;;;10490938;28;20035;-88
2021/09/07 16:41:51;;;;;;;10.07;7.65;;;;;;;;;;10509321;28;20033;-89
2021/09/07 16:46:52;;;;;;;9.93;7.70;;;;;;;;;;10505792;28;20070;-89
2021/09/07 16:51:54;;;;;;;9.48;7.65;;;;;;;;;;10506590;28;20421;-88
2021/09/07 16:56:55;;;;;;;8.25;7.28;;;;;;;;;;10510811;28;20051;-89
2021/09/07 17:01:56;;;;;;;11.73;7.75;;;;;;;;;;10492057;28;20025;-89
2021/09/07 17:06:58;;;;;;;10.20;7.20;;;;;;;;;;10488544;28;20028;-89
2021/09/07 17:12:00;;;;;;;9.63;7.60;;;;;;;;;;10490936;28;20085;-88
2021/09/07 17:17:01;;;;;;;8.30;7.40;;;;;;;;;;10491171;28;20033;-88
2021/09/07 17:22:02;;;;;;;10.85;7.68;;;;;;;;;;10490745;28;20516;-88
2021/09/07 17:27:03;;;;;;;8.75;7.85;;;;;;;;;;10491113;28;20025;-89
2021/09/07 17:42:28;;;;;;;11.82;9.18;;;;;;;;;;10505885;28;20033;-89
2021/09/07 17:47:29;;;;;;;8.82;7.15;;;;;;;;;;10502117;28;20115;-88
2021/09/07 17:52:30;;;;;;;8.73;7.53;;;;;;;;;;10504869;28;20512;-89
2021/09/07 17:57:33;;;;;;;8.73;7.03;;;;;;;;;;10517777;28;20021;-89
2021/09/07 18:02:34;;;;;;;10.45;8.15;;;;;;;;;;10527264;28;20070;-88
2021/09/07 18:07:35;;;;;;;7.50;6.80;;;;;;;;;;10512328;28;20024;-89
2021/09/07 18:12:36;;;;;;;8.85;6.97;;;;;;;;;;10510119;28;20505;-89
2021/09/07 18:17:38;;;;;;;7.78;6.82;;;;;;;;;;10517915;28;20515;-89
2021/09/07 18:22:39;;;;;;;8.05;6.93;;;;;;;;;;10494990;28;20025;-88
2021/09/07 18:27:40;;;;;;;8.95;7.13;;;;;;;;;;10506443;28;20096;-89
2021/09/07 18:32:43;;;;;;;7.30;6.30;;;;;;;;;;10518406;28;20028;-89
2021/09/07 18:37:44;;;;;;;10.30;6.68;;;;;;;;;;10527360;28;20420;-89
2021/09/07 18:42:45;;;;;;;8.63;6.15;;;;;;;;;;10504996;28;20028;-88
2021/09/07 18:47:46;;;;;;;7.57;6.40;;;;;;;;;;10526333;28;20020;-89
2021/09/07 18:52:47;;;;;;;7.32;5.88;;;;;;;;;;10503140;28;20355;-89
2021/09/07 18:57:48;;;;;;;6.82;6.00;;;;;;;;;;10507738;28;20390;-88
2021/09/07 19:02:49;;;;;;;6.60;5.63;;;;;;;;;;10516893;28;20534;-88
2021/09/07 19:07:50;;;;;;;7.15;6.38;;;;;;;;;;10513062;28;20060;-88
2021/09/07 19:12:51;;;;;;;7.90;6.90;;;;;;;;;;10515271;28;20052;-88
2021/09/07 19:17:52;;;;;;;7.88;6.50;;;;;;;;;;10507807;28;20064;-88
2021/09/07 19:22:53;;;;;;;7.95;6.20;;;;;;;;;;10506827;28;20028;-89
2021/09/07 19:27:54;;;;;;;7.55;6.32;;;;;;;;;;10508887;28;20031;-89
2021/09/07 19:32:55;;;;;;;5.90;5.15;;;;;;;;;;10508965;28;20032;-88
2021/09/07 19:37:56;;;;;;;6.38;5.78;;;;;;;;;;10512566;28;20028;-89
2021/09/07 19:42:58;;;;;;;6.57;5.82;;;;;;;;;;10508745;28;20071;-88
2021/09/07 19:47:59;;;;;;;8.90;6.15;;;;;;;;;;10513813;28;20044;-88
2021/09/07 19:53:00;;;;;;;6.75;5.95;;;;;;;;;;10509733;28;20021;-89
2021/09/07 19:58:07;;;;;;;8.27;6.10;;;;;;;;;;10523229;23;20075;-86
2021/09/07 20:03:08;;;;;;;6.50;5.82;;;;;;;;;;10471738;28;20032;-86
2021/09/07 20:08:09;;;;;;;8.02;6.50;;;;;;;;;;10471081;28;20389;-86
2021/09/07 20:13:10;;;;;;;8.48;6.85;;;;;;;;;;10469309;28;20428;-86
